Terminal Aerodrome Forecast
Issued by NWS Cleveland, OH

Home | Current Version | Previous Version | Graphics & Text | Print | Product List | Glossary On
Versions: 1 2 3 4 5 6 7 8 9 10 11 12 13 14 15 16 17 18 19 20 21 22
000
FTUS41 KCLE 142300 RRA
TAFMFD
TAF
KMFD 142345Z 1500/1524 31008KT P6SM SCT007 OVC015
      TEMPO 1500/1502 5SM -RA OVC015
     FM150200 33010KT 5SM -RA BKN007 OVC015
      TEMPO 1502/1504 2SM -RA BR OVC007
     FM150400 33012KT 2SM -RA BR OVC007
     FM150800 33012G20KT 1SM -SN BR OVC004
     FM151200 32015G25KT 2SM -SN BR OVC007
     FM151400 32015G25KT P6SM BKN012 OVC025
     FM151800 32012G20KT P6SM BKN025 OVC035=

USA.gov is the U.S. government's official web portal to all federal, state and local government web resources and services.